Terminal Aerodrome Forecast
Issued by NWS Newport/Morehead City, NC

Home | Current Version | Previous Version | Graphics & Text | Print | Product List | Glossary On
Versions: 1 2 3 4 5 6 7 8 9 10 11 12 13 14 15 16 17 18 19 20 21 22 23
000
FTUS42 KMHX 250200 AAA
TAFEWN
TAF AMD
KEWN 250213Z 2502/2524 19005KT P6SM VCTS SCT025 BKN040CB
      TEMPO 2502/2504 3SM -TSRA SCT007 BKN025CB
     FM250600 VRB02KT 4SM BR SCT010 BKN100
     FM251300 05005KT P6SM SCT040 BKN100=

USA.gov is the U.S. government's official web portal to all federal, state and local government web resources and services.